sensor_id;sensor_type;location;lat;lon;timestamp;pressure;altitude;pressure_sealevel;temperature;humidity
85798;BME280;76244;53.434;14.484;2024-02-16T00:00:14;101510.61;;;12.50;80.05
85798;BME280;76244;53.434;14.484;2024-02-16T00:03:08;101512.02;;;12.48;79.55
85798;BME280;76244;53.434;14.484;2024-02-16T00:05:40;101507.41;;;12.47;79.73
85798;BME280;76244;53.434;14.484;2024-02-16T00:08:14;101505.45;;;12.46;79.76
85798;BME280;76244;53.434;14.484;2024-02-16T00:10:46;101507.94;;;12.46;79.65
85798;BME280;76244;53.434;14.484;2024-02-16T00:13:19;101504.76;;;12.46;79.84
85798;BME280;76244;53.434;14.484;2024-02-16T00:15:51;101503.52;;;12.47;79.99
85798;BME280;76244;53.434;14.484;2024-02-16T00:18:24;101499.28;;;12.45;79.67
85798;BME280;76244;53.434;14.484;2024-02-16T00:20:57;101500.17;;;12.45;79.61
85798;BME280;76244;53.434;14.484;2024-02-16T00:23:29;101504.94;;;12.44;79.86
85798;BME280;76244;53.434;14.484;2024-02-16T00:26:03;101504.05;;;12.45;79.98
85798;BME280;76244;53.434;14.484;2024-02-16T00:28:38;101502.63;;;12.46;79.82
85798;BME280;76244;53.434;14.484;2024-02-16T00:31:10;101502.81;;;12.46;79.82
85798;BME280;76244;53.434;14.484;2024-02-16T00:33:43;101499.45;;;12.45;79.77
85798;BME280;76244;53.434;14.484;2024-02-16T00:36:15;101492.92;;;12.45;79.90
85798;BME280;76244;53.434;14.484;2024-02-16T00:38:48;101489.92;;;12.44;79.74
85798;BME280;76244;53.434;14.484;2024-02-16T00:41:21;101487.45;;;12.44;80.05
85798;BME280;76244;53.434;14.484;2024-02-16T00:43:54;101486.91;;;12.44;79.96
85798;BME280;76244;53.434;14.484;2024-02-16T00:46:28;101489.39;;;12.45;79.76
85798;BME280;76244;53.434;14.484;2024-02-16T00:49:00;101485.15;;;12.45;79.43
85798;BME280;76244;53.434;14.484;2024-02-16T00:51:34;101481.61;;;12.44;79.55
85798;BME280;76244;53.434;14.484;2024-02-16T00:54:07;101485.67;;;12.41;79.67
85798;BME280;76244;53.434;14.484;2024-02-16T00:56:39;101480.71;;;12.40;79.76
85798;BME280;76244;53.434;14.484;2024-02-16T00:59:12;101479.30;;;12.39;79.82
85798;BME280;76244;53.434;14.484;2024-02-16T01:01:45;101479.29;;;12.38;79.36
85798;BME280;76244;53.434;14.484;2024-02-16T01:04:17;101480.00;;;12.39;79.54
85798;BME280;76244;53.434;14.484;2024-02-16T01:06:49;101476.30;;;12.40;79.86
85798;BME280;76244;53.434;14.484;2024-02-16T01:09:23;101475.06;;;12.38;79.33
85798;BME280;76244;53.434;14.484;2024-02-16T01:11:55;101469.41;;;12.37;79.53
85798;BME280;76244;53.434;14.484;2024-02-16T01:14:27;101463.05;;;12.36;79.50
85798;BME280;76244;53.434;14.484;2024-02-16T01:17:00;101467.46;;;12.36;79.62
85798;BME280;76244;53.434;14.484;2024-02-16T01:19:33;101464.82;;;12.37;79.67
85798;BME280;76244;53.434;14.484;2024-02-16T01:22:05;101463.58;;;12.39;79.87
85798;BME280;76244;53.434;14.484;2024-02-16T01:24:38;101459.69;;;12.39;79.55
85798;BME280;76244;53.434;14.484;2024-02-16T01:27:11;101460.05;;;12.39;79.58
85798;BME280;76244;53.434;14.484;2024-02-16T01:29:43;101461.10;;;12.36;79.42
85798;BME280;76244;53.434;14.484;2024-02-16T01:32:16;101463.92;;;12.35;79.53
85798;BME280;76244;53.434;14.484;2024-02-16T01:34:49;101469.05;;;12.34;79.55
85798;BME280;76244;53.434;14.484;2024-02-16T01:37:21;101467.45;;;12.34;79.52
85798;BME280;76244;53.434;14.484;2024-02-16T01:39:54;101467.63;;;12.33;79.35
85798;BME280;76244;53.434;14.484;2024-02-16T01:42:27;101469.73;;;12.33;79.37
85798;BME280;76244;53.434;14.484;2024-02-16T01:45:00;101466.56;;;12.34;79.30
85798;BME280;76244;53.434;14.484;2024-02-16T01:47:32;101469.75;;;12.34;79.60
85798;BME280;76244;53.434;14.484;2024-02-16T01:50:06;101467.27;;;12.34;79.58
85798;BME280;76244;53.434;14.484;2024-02-16T01:52:39;101466.56;;;12.34;79.48
85798;BME280;76244;53.434;14.484;2024-02-16T01:55:13;101464.27;;;12.35;79.50
85798;BME280;76244;53.434;14.484;2024-02-16T01:57:47;101460.91;;;12.35;79.63
85798;BME280;76244;53.434;14.484;2024-02-16T02:00:19;101461.44;;;12.35;79.27
85798;BME280;76244;53.434;14.484;2024-02-16T02:02:53;101458.97;;;12.36;79.10
85798;BME280;76244;53.434;14.484;2024-02-16T02:05:25;101457.38;;;12.36;79.24
85798;BME280;76244;53.434;14.484;2024-02-16T02:07:58;101456.67;;;12.34;79.13
85798;BME280;76244;53.434;14.484;2024-02-16T02:10:30;101453.50;;;12.34;79.04
85798;BME280;76244;53.434;14.484;2024-02-16T02:13:03;101452.80;;;12.35;79.23
85798;BME280;76244;53.434;14.484;2024-02-16T02:15:36;101449.27;;;12.35;79.24
85798;BME280;76244;53.434;14.484;2024-02-16T02:18:10;101446.42;;;12.36;79.06
85798;BME280;76244;53.434;14.484;2024-02-16T02:20:43;101443.42;;;12.35;78.88
85798;BME280;76244;53.434;14.484;2024-02-16T02:23:16;101444.48;;;12.34;79.08
85798;BME280;76244;53.434;14.484;2024-02-16T02:25:49;101446.44;;;12.32;79.09
85798;BME280;76244;53.434;14.484;2024-02-16T02:28:21;101449.08;;;12.30;78.91
85798;BME280;76244;53.434;14.484;2024-02-16T02:30:55;101444.83;;;12.30;78.89
85798;BME280;76244;53.434;14.484;2024-02-16T02:33:28;101442.18;;;12.30;78.89
85798;BME280;76244;53.434;14.484;2024-02-16T02:36:01;101440.58;;;12.28;78.76
85798;BME280;76244;53.434;14.484;2024-02-16T02:38:35;101435.82;;;12.28;78.59
85798;BME280;76244;53.434;14.484;2024-02-16T02:41:08;101431.41;;;12.27;78.56
85798;BME280;76244;53.434;14.484;2024-02-16T02:43:40;101433.16;;;12.25;78.47
85798;BME280;76244;53.434;14.484;2024-02-16T02:46:17;101430.33;;;12.23;78.74
85798;BME280;76244;53.434;14.484;2024-02-16T02:48:50;101428.20;;;12.21;78.59
85798;BME280;76244;53.434;14.484;2024-02-16T02:51:23;101427.84;;;12.19;78.71
85798;BME280;76244;53.434;14.484;2024-02-16T02:53:56;101422.70;;;12.19;78.44
85798;BME280;76244;53.434;14.484;2024-02-16T02:56:28;101421.30;;;12.17;78.42
85798;BME280;76244;53.434;14.484;2024-02-16T02:59:00;101416.01;;;12.16;78.39
85798;BME280;76244;53.434;14.484;2024-02-16T03:01:33;101412.81;;;12.14;78.29
85798;BME280;76244;53.434;14.484;2024-02-16T03:04:05;101410.70;;;12.13;78.26
85798;BME280;76244;53.434;14.484;2024-02-16T03:06:39;101408.55;;;12.10;78.19
85798;BME280;76244;53.434;14.484;2024-02-16T03:09:12;101405.91;;;12.08;78.20
85798;BME280;76244;53.434;14.484;2024-02-16T03:11:45;101410.84;;;12.07;78.22
85798;BME280;76244;53.434;14.484;2024-02-16T03:14:18;101408.38;;;12.07;78.14
85798;BME280;76244;53.434;14.484;2024-02-16T03:16:50;101407.67;;;12.06;78.18
85798;BME280;76244;53.434;14.484;2024-02-16T03:19:23;101410.66;;;12.05;78.20
85798;BME280;76244;53.434;14.484;2024-02-16T03:21:55;101404.65;;;12.04;77.90
85798;BME280;76244;53.434;14.484;2024-02-16T03:24:28;101403.41;;;12.02;78.05
85798;BME280;76244;53.434;14.484;2024-02-16T03:27:01;101403.75;;;11.99;77.92
85798;BME280;76244;53.434;14.484;2024-02-16T03:29:33;101401.63;;;11.95;78.04
85798;BME280;76244;53.434;14.484;2024-02-16T03:32:06;101401.42;;;11.94;78.02
85798;BME280;76244;53.434;14.484;2024-02-16T03:34:39;101395.79;;;11.93;77.68
85798;BME280;76244;53.434;14.484;2024-02-16T03:37:12;101395.26;;;11.92;77.81
85798;BME280;76244;53.434;14.484;2024-02-16T03:39:44;101400.02;;;11.92;77.79
85798;BME280;76244;53.434;14.484;2024-02-16T03:42:17;101397.54;;;11.90;77.71
85798;BME280;76244;53.434;14.484;2024-02-16T03:44:50;101394.89;;;11.88;77.43
85798;BME280;76244;53.434;14.484;2024-02-16T03:47:23;101390.81;;;11.85;77.73
85798;BME280;76244;53.434;14.484;2024-02-16T03:50:01;101384.42;;;11.83;77.55
85798;BME280;76244;53.434;14.484;2024-02-16T03:52:33;101386.02;;;11.81;77.67
85798;BME280;76244;53.434;14.484;2024-02-16T03:55:08;101387.59;;;11.81;77.50
85798;BME280;76244;53.434;14.484;2024-02-16T03:57:42;101385.45;;;11.80;77.61
85798;BME280;76244;53.434;14.484;2024-02-16T04:00:15;101382.27;;;11.80;77.42
85798;BME280;76244;53.434;14.484;2024-02-16T04:02:49;101383.88;;;11.79;77.39
85798;BME280;76244;53.434;14.484;2024-02-16T04:05:22;101383.33;;;11.77;77.54
85798;BME280;76244;53.434;14.484;2024-02-16T04:07:54;101383.15;;;11.74;77.48
85798;BME280;76244;53.434;14.484;2024-02-16T04:10:26;101381.73;;;11.72;77.64
85798;BME280;76244;53.434;14.484;2024-02-16T04:12:59;101386.81;;;11.68;77.19
85798;BME280;76244;53.434;14.484;2024-02-16T04:15:31;101383.27;;;11.64;77.14
85798;BME280;76244;53.434;14.484;2024-02-16T04:18:05;101381.49;;;11.62;77.25
85798;BME280;76244;53.434;14.484;2024-02-16T04:20:38;101377.61;;;11.61;77.11
85798;BME280;76244;53.434;14.484;2024-02-16T04:23:12;101374.07;;;11.60;77.20
85798;BME280;76244;53.434;14.484;2024-02-16T04:25:44;101376.35;;;11.59;77.38
85798;BME280;76244;53.434;14.484;2024-02-16T04:28:17;101378.64;;;11.56;77.32
85798;BME280;76244;53.434;14.484;2024-02-16T04:30:49;101377.94;;;11.55;77.41
85798;BME280;76244;53.434;14.484;2024-02-16T04:33:22;101378.44;;;11.53;77.24
85798;BME280;76244;53.434;14.484;2024-02-16T04:35:55;101379.14;;;11.52;77.32
85798;BME280;76244;53.434;14.484;2024-02-16T04:38:27;101375.61;;;11.51;77.54
85798;BME280;76244;53.434;14.484;2024-02-16T04:40:59;101375.09;;;11.51;77.44
85798;BME280;76244;53.434;14.484;2024-02-16T04:43:32;101377.03;;;11.51;77.57
85798;BME280;76244;53.434;14.484;2024-02-16T04:46:05;101371.73;;;11.51;77.60
85798;BME280;76244;53.434;14.484;2024-02-16T04:48:37;101368.54;;;11.49;77.43
85798;BME280;76244;53.434;14.484;2024-02-16T04:51:09;101368.38;;;11.48;77.60
85798;BME280;76244;53.434;14.484;2024-02-16T04:53:42;101367.64;;;11.45;77.25
85798;BME280;76244;53.434;14.484;2024-02-16T04:56:14;101361.64;;;11.44;77.36
85798;BME280;76244;53.434;14.484;2024-02-16T04:58:46;101358.29;;;11.45;77.54
85798;BME280;76244;53.434;14.484;2024-02-16T05:01:19;101351.77;;;11.44;77.54
85798;BME280;76244;53.434;14.484;2024-02-16T05:03:52;101352.83;;;11.45;77.52
85798;BME280;76244;53.434;14.484;2024-02-16T05:06:26;101353.36;;;11.45;77.40
85798;BME280;76244;53.434;14.484;2024-02-16T05:08:59;101348.06;;;11.43;77.43
85798;BME280;76244;53.434;14.484;2024-02-16T05:11:33;101349.10;;;11.41;77.42
85798;BME280;76244;53.434;14.484;2024-02-16T05:14:05;101345.74;;;11.39;77.44
85798;BME280;76244;53.434;14.484;2024-02-16T05:16:42;101348.03;;;11.39;77.24
85798;BME280;76244;53.434;14.484;2024-02-16T05:19:14;101340.11;;;11.40;77.45
85798;BME280;76244;53.434;14.484;2024-02-16T05:21:47;101333.20;;;11.39;77.08
85798;BME280;76244;53.434;14.484;2024-02-16T05:24:20;101331.80;;;11.39;77.07
85798;BME280;76244;53.434;14.484;2024-02-16T05:26:54;101329.67;;;11.36;77.06
85798;BME280;76244;53.434;14.484;2024-02-16T05:29:27;101329.67;;;11.34;77.05
85798;BME280;76244;53.434;14.484;2024-02-16T05:31:59;101330.55;;;11.33;77.02
85798;BME280;76244;53.434;14.484;2024-02-16T05:34:32;101329.83;;;11.31;76.80
85798;BME280;76244;53.434;14.484;2024-02-16T05:37:20;101328.39;;;11.26;76.74
85798;BME280;76244;53.434;14.484;2024-02-16T05:39:53;101332.08;;;11.24;77.03
85798;BME280;76244;53.434;14.484;2024-02-16T05:42:28;101337.53;;;11.23;76.84
85798;BME280;76244;53.434;14.484;2024-02-16T05:45:00;101344.42;;;11.23;77.06
85798;BME280;76244;53.434;14.484;2024-02-16T05:47:34;101348.45;;;11.22;77.13
85798;BME280;76244;53.434;14.484;2024-02-16T05:50:07;101346.16;;;11.22;76.96
85798;BME280;76244;53.434;14.484;2024-02-16T05:52:40;101345.64;;;11.20;77.12
85798;BME280;76244;53.434;14.484;2024-02-16T05:55:13;101345.98;;;11.19;76.88
85798;BME280;76244;53.434;14.484;2024-02-16T05:57:46;101349.50;;;11.18;77.10
85798;BME280;76244;53.434;14.484;2024-02-16T06:00:19;101349.14;;;11.16;77.01
85798;BME280;76244;53.434;14.484;2024-02-16T06:02:53;101345.07;;;11.15;77.09
85798;BME280;76244;53.434;14.484;2024-02-16T06:05:27;101341.88;;;11.14;76.77
85798;BME280;76244;53.434;14.484;2024-02-16T06:07:59;101341.00;;;11.13;76.88
85798;BME280;76244;53.434;14.484;2024-02-16T06:10:32;101340.47;;;11.13;76.78
85798;BME280;76244;53.434;14.484;2024-02-16T06:13:05;101336.08;;;11.12;76.85
85798;BME280;76244;53.434;14.484;2024-02-16T06:15:38;101333.23;;;11.12;76.76
85798;BME280;76244;53.434;14.484;2024-02-16T06:18:11;101336.04;;;11.09;76.63
85798;BME280;76244;53.434;14.484;2024-02-16T06:20:44;101333.55;;;11.06;76.79
85798;BME280;76244;53.434;14.484;2024-02-16T06:23:16;101334.75;;;11.02;76.53
85798;BME280;76244;53.434;14.484;2024-02-16T06:25:49;101335.80;;;11.00;76.85
85798;BME280;76244;53.434;14.484;2024-02-16T06:28:22;101340.55;;;10.98;76.87
85798;BME280;76244;53.434;14.484;2024-02-16T06:30:55;101340.91;;;10.98;76.97
85798;BME280;76244;53.434;14.484;2024-02-16T06:33:28;101345.66;;;10.99;76.79
85798;BME280;76244;53.434;14.484;2024-02-16T06:36:00;101344.08;;;10.98;76.80
85798;BME280;76244;53.434;14.484;2024-02-16T06:38:33;101347.06;;;10.98;76.78
85798;BME280;76244;53.434;14.484;2024-02-16T06:41:05;101346.52;;;10.95;76.81
85798;BME280;76244;53.434;14.484;2024-02-16T06:43:39;101352.49;;;10.93;77.00
85798;BME280;76244;53.434;14.484;2024-02-16T06:46:11;101348.23;;;10.90;76.85
85798;BME280;76244;53.434;14.484;2024-02-16T06:48:43;101343.48;;;10.89;76.71
85798;BME280;76244;53.434;14.484;2024-02-16T06:51:16;101336.95;;;10.88;76.70
85798;BME280;76244;53.434;14.484;2024-02-16T06:53:48;101334.11;;;10.87;76.80
85798;BME280;76244;53.434;14.484;2024-02-16T06:56:25;101334.45;;;10.87;76.72
85798;BME280;76244;53.434;14.484;2024-02-16T06:59:01;101332.36;;;10.85;76.85
85798;BME280;76244;53.434;14.484;2024-02-16T07:01:33;101330.05;;;10.84;76.72
85798;BME280;76244;53.434;14.484;2024-02-16T07:04:05;101327.04;;;10.81;76.90
85798;BME280;76244;53.434;14.484;2024-02-16T07:06:43;101328.77;;;10.79;76.87
85798;BME280;76244;53.434;14.484;2024-02-16T07:09:18;101330.86;;;10.76;77.06
85798;BME280;76244;53.434;14.484;2024-02-16T07:11:53;101326.99;;;10.75;77.12
85798;BME280;76244;53.434;14.484;2024-02-16T07:14:25;101322.77;;;10.75;76.94
85798;BME280;76244;53.434;14.484;2024-02-16T07:16:58;101321.17;;;10.75;77.00
85798;BME280;76244;53.434;14.484;2024-02-16T07:19:30;101316.59;;;10.76;77.10
85798;BME280;76244;53.434;14.484;2024-02-16T07:22:03;101308.31;;;10.76;76.96
85798;BME280;76244;53.434;14.484;2024-02-16T07:24:37;101306.02;;;10.76;77.22
85798;BME280;76244;53.434;14.484;2024-02-16T07:27:10;101311.14;;;10.76;77.30
85798;BME280;76244;53.434;14.484;2024-02-16T07:29:44;101311.13;;;10.76;77.26
85798;BME280;76244;53.434;14.484;2024-02-16T07:32:18;101306.58;;;10.78;77.33
85798;BME280;76244;53.434;14.484;2024-02-16T07:34:50;101298.47;;;10.80;77.30
85798;BME280;76244;53.434;14.484;2024-02-16T07:37:23;101293.37;;;10.80;77.29
85798;BME280;76244;53.434;14.484;2024-02-16T07:39:56;101294.45;;;10.83;77.34
85798;BME280;76244;53.434;14.484;2024-02-16T07:42:28;101289.36;;;10.86;77.49
85798;BME280;76244;53.434;14.484;2024-02-16T07:45:00;101289.55;;;10.88;77.53
85798;BME280;76244;53.434;14.484;2024-02-16T07:47:35;101296.79;;;10.89;77.50
85798;BME280;76244;53.434;14.484;2024-02-16T07:50:09;101297.88;;;10.93;77.84
85798;BME280;76244;53.434;14.484;2024-02-16T07:52:42;101296.14;;;10.97;77.77
85798;BME280;76244;53.434;14.484;2024-02-16T07:55:15;101292.83;;;11.03;77.76
85798;BME280;76244;53.434;14.484;2024-02-16T07:57:49;101297.59;;;11.08;77.73
85798;BME280;76244;53.434;14.484;2024-02-16T08:00:22;101298.01;;;11.14;77.58
85798;BME280;76244;53.434;14.484;2024-02-16T08:02:54;101298.04;;;11.21;77.32
85798;BME280;76244;53.434;14.484;2024-02-16T08:05:27;101296.30;;;11.26;77.32
85798;BME280;76244;53.434;14.484;2024-02-16T08:07:59;101295.98;;;11.32;77.22
85798;BME280;76244;53.434;14.484;2024-02-16T08:10:31;101297.04;;;11.34;77.10
85798;BME280;76244;53.434;14.484;2024-02-16T08:13:04;101294.42;;;11.38;77.31
85798;BME280;76244;53.434;14.484;2024-02-16T08:15:37;101292.51;;;11.43;77.45
85798;BME280;76244;53.434;14.484;2024-02-16T08:18:10;101297.98;;;11.47;77.21
85798;BME280;76244;53.434;14.484;2024-02-16T08:20:43;101294.13;;;11.51;77.07
85798;BME280;76244;53.434;14.484;2024-02-16T08:23:15;101296.95;;;11.53;76.78
85798;BME280;76244;53.434;14.484;2024-02-16T08:25:47;101297.67;;;11.54;76.88
85798;BME280;76244;53.434;14.484;2024-02-16T08:28:20;101296.09;;;11.55;76.73
85798;BME280;76244;53.434;14.484;2024-02-16T08:30:53;101301.38;;;11.54;76.63
85798;BME280;76244;53.434;14.484;2024-02-16T08:33:25;101299.96;;;11.55;76.69
85798;BME280;76244;53.434;14.484;2024-02-16T08:35:58;101299.96;;;11.56;76.76
85798;BME280;76244;53.434;14.484;2024-02-16T08:38:31;101294.52;;;11.59;76.86
85798;BME280;76244;53.434;14.484;2024-02-16T08:41:03;101291.70;;;11.62;76.70
85798;BME280;76244;53.434;14.484;2024-02-16T08:43:35;101286.07;;;11.65;76.58
85798;BME280;76244;53.434;14.484;2024-02-16T08:46:08;101280.95;;;11.68;76.85
85798;BME280;76244;53.434;14.484;2024-02-16T08:48:41;101282.02;;;11.71;76.80
85798;BME280;76244;53.434;14.484;2024-02-16T08:51:13;101282.20;;;11.73;76.41
85798;BME280;76244;53.434;14.484;2024-02-16T08:53:47;101276.41;;;11.74;76.58
85798;BME280;76244;53.434;14.484;2024-02-16T08:56:19;101267.77;;;11.74;76.21
85798;BME280;76244;53.434;14.484;2024-02-16T08:58:54;101269.88;;;11.76;76.33
85798;BME280;76244;53.434;14.484;2024-02-16T09:01:33;101270.24;;;11.78;76.16
85798;BME280;76244;53.434;14.484;2024-02-16T09:04:06;101262.14;;;11.81;76.14
85798;BME280;76244;53.434;14.484;2024-02-16T09:06:38;101264.95;;;11.83;76.10
85798;BME280;76244;53.434;14.484;2024-02-16T09:09:11;101262.35;;;11.85;75.99
85798;BME280;76244;53.434;14.484;2024-02-16T09:11:47;101261.64;;;11.86;76.04
85798;BME280;76244;53.434;14.484;2024-02-16T09:14:19;101257.58;;;11.88;75.97
85798;BME280;76244;53.434;14.484;2024-02-16T09:16:51;101258.83;;;11.89;76.22
85798;BME280;76244;53.434;14.484;2024-02-16T09:19:25;101257.59;;;11.91;75.99
85798;BME280;76244;53.434;14.484;2024-02-16T09:22:06;101258.83;;;11.94;75.96
85798;BME280;76244;53.434;14.484;2024-02-16T09:24:38;101256.73;;;11.97;76.01
85798;BME280;76244;53.434;14.484;2024-02-16T09:27:12;101259.02;;;12.00;75.73
85798;BME280;76244;53.434;14.484;2024-02-16T09:29:44;101259.03;;;12.03;75.59
85798;BME280;76244;53.434;14.484;2024-02-16T09:32:16;101256.02;;;12.04;75.48
85798;BME280;76244;53.434;14.484;2024-02-16T09:34:49;101257.63;;;12.05;75.63
85798;BME280;76244;53.434;14.484;2024-02-16T09:37:22;101262.39;;;12.05;75.32
85798;BME280;76244;53.434;14.484;2024-02-16T09:39:55;101258.16;;;12.06;75.31
85798;BME280;76244;53.434;14.484;2024-02-16T09:42:27;101254.27;;;12.08;75.40
85798;BME280;76244;53.434;14.484;2024-02-16T09:45:03;101255.51;;;12.11;75.54
85798;BME280;76244;53.434;14.484;2024-02-16T09:47:37;101257.09;;;12.12;75.31
85798;BME280;76244;53.434;14.484;2024-02-16T09:50:17;101262.58;;;12.18;75.07
85798;BME280;76244;53.434;14.484;2024-02-16T09:52:51;101257.45;;;12.21;75.48
85798;BME280;76244;53.434;14.484;2024-02-16T09:55:23;101261.17;;;12.26;75.48
85798;BME280;76244;53.434;14.484;2024-02-16T09:58:03;101258.52;;;12.29;74.69
85798;BME280;76244;53.434;14.484;2024-02-16T10:00:37;101256.23;;;12.31;74.91
85798;BME280;76244;53.434;14.484;2024-02-16T10:03:20;101256.05;;;12.33;74.72
85798;BME280;76244;53.434;14.484;2024-02-16T10:06:03;101256.05;;;12.35;74.44
85798;BME280;76244;53.434;14.484;2024-02-16T10:08:46;101255.70;;;12.40;74.57
85798;BME280;76244;53.434;14.484;2024-02-16T10:11:20;101251.27;;;12.45;74.18
85798;BME280;76244;53.434;14.484;2024-02-16T10:14:01;101250.93;;;12.48;73.83
85798;BME280;76244;53.434;14.484;2024-02-16T10:16:34;101247.04;;;12.51;73.79
85798;BME280;76244;53.434;14.484;2024-02-16T10:19:07;101251.64;;;12.54;73.56
85798;BME280;76244;53.434;14.484;2024-02-16T10:21:46;101251.63;;;12.56;73.47
85798;BME280;76244;53.434;14.484;2024-02-16T10:24:22;101245.80;;;12.59;73.16
85798;BME280;76244;53.434;14.484;2024-02-16T10:26:56;101245.98;;;12.61;73.23
85798;BME280;76244;53.434;14.484;2024-02-16T10:29:28;101241.04;;;12.61;72.75
85798;BME280;76244;53.434;14.484;2024-02-16T10:32:03;101241.73;;;12.61;73.05
85798;BME280;76244;53.434;14.484;2024-02-16T10:34:37;101241.90;;;12.63;72.95
85798;BME280;76244;53.434;14.484;2024-02-16T10:37:11;101239.79;;;12.66;72.88
85798;BME280;76244;53.434;14.484;2024-02-16T10:39:45;101239.24;;;12.70;72.87
85798;BME280;76244;53.434;14.484;2024-02-16T10:42:20;101234.48;;;12.74;72.66
85798;BME280;76244;53.434;14.484;2024-02-16T10:44:56;101232.69;;;12.78;72.54
85798;BME280;76244;53.434;14.484;2024-02-16T10:47:29;101234.98;;;12.82;72.55
85798;BME280;76244;53.434;14.484;2024-02-16T10:50:02;101230.39;;;12.86;72.14
85798;BME280;76244;53.434;14.484;2024-02-16T10:52:36;101218.89;;;12.87;71.86
85798;BME280;76244;53.434;14.484;2024-02-16T10:55:11;101213.59;;;12.90;71.83
85798;BME280;76244;53.434;14.484;2024-02-16T10:57:45;101212.87;;;12.93;71.82
85798;BME280;76244;53.434;14.484;2024-02-16T11:00:21;101210.90;;;12.94;71.70
85798;BME280;76244;53.434;14.484;2024-02-16T11:02:54;101209.33;;;12.96;71.81
85798;BME280;76244;53.434;14.484;2024-02-16T11:05:40;101207.55;;;12.98;71.88
85798;BME280;76244;53.434;14.484;2024-02-16T11:08:15;101206.64;;;13.01;71.59
85798;BME280;76244;53.434;14.484;2024-02-16T11:11:00;101209.99;;;13.06;71.48
85798;BME280;76244;53.434;14.484;2024-02-16T11:13:36;101204.86;;;13.10;70.84
85798;BME280;76244;53.434;14.484;2024-02-16T11:16:10;101200.42;;;13.13;70.61
85798;BME280;76244;53.434;14.484;2024-02-16T11:18:45;101198.11;;;13.18;70.59
85798;BME280;76244;53.434;14.484;2024-02-16T11:21:20;101193.48;;;13.21;70.31
85798;BME280;76244;53.434;14.484;2024-02-16T11:23:52;101191.54;;;13.23;69.93
85798;BME280;76244;53.434;14.484;2024-02-16T11:26:25;101185.90;;;13.26;69.54
85798;BME280;76244;53.434;14.484;2024-02-16T11:28:59;101183.05;;;13.28;69.29
85798;BME280;76244;53.434;14.484;2024-02-16T11:31:31;101182.87;;;13.29;69.13
85798;BME280;76244;53.434;14.484;2024-02-16T11:34:04;101180.56;;;13.30;68.77
85798;BME280;76244;53.434;14.484;2024-02-16T11:36:37;101178.27;;;13.30;68.83
85798;BME280;76244;53.434;14.484;2024-02-16T11:39:14;101179.52;;;13.30;68.61
85798;BME280;76244;53.434;14.484;2024-02-16T11:41:47;101183.22;;;13.30;68.42
85798;BME280;76244;53.434;14.484;2024-02-16T11:44:20;101183.05;;;13.31;68.28
85798;BME280;76244;53.434;14.484;2024-02-16T11:46:55;101185.70;;;13.32;68.31
85798;BME280;76244;53.434;14.484;2024-02-16T11:49:29;101178.26;;;13.32;68.36
85798;BME280;76244;53.434;14.484;2024-02-16T11:52:02;101171.90;;;13.34;68.11
85798;BME280;76244;53.434;14.484;2024-02-16T11:54:36;101176.65;;;13.36;67.94
85798;BME280;76244;53.434;14.484;2024-02-16T11:57:08;101173.27;;;13.40;68.08
85798;BME280;76244;53.434;14.484;2024-02-16T11:59:41;101171.13;;;13.44;67.77
85798;BME280;76244;53.434;14.484;2024-02-16T12:02:19;101165.27;;;13.49;67.41
85798;BME280;76244;53.434;14.484;2024-02-16T12:05:00;101167.52;;;13.55;67.31
85798;BME280;76244;53.434;14.484;2024-02-16T12:07:36;101164.30;;;13.59;66.45
85798;BME280;76244;53.434;14.484;2024-02-16T12:10:12;101161.64;;;13.62;66.24
85798;BME280;76244;53.434;14.484;2024-02-16T12:12:44;101163.58;;;13.63;66.39
85798;BME280;76244;53.434;14.484;2024-02-16T12:15:17;101170.46;;;13.65;66.01
85798;BME280;76244;53.434;14.484;2024-02-16T12:18:01;101162.67;;;13.66;65.20
85798;BME280;76244;53.434;14.484;2024-02-16T12:20:34;101166.20;;;13.67;65.34
85798;BME280;76244;53.434;14.484;2024-02-16T12:23:15;101154.69;;;13.67;65.49
85798;BME280;76244;53.434;14.484;2024-02-16T12:25:47;101151.86;;;13.67;65.65
85798;BME280;76244;53.434;14.484;2024-02-16T12:28:23;101147.45;;;13.68;65.78
85798;BME280;76244;53.434;14.484;2024-02-16T12:30:56;101142.49;;;13.68;65.31
85798;BME280;76244;53.434;14.484;2024-02-16T12:33:33;101132.22;;;13.67;65.20
85798;BME280;76244;53.434;14.484;2024-02-16T12:36:06;101138.42;;;13.67;65.38
85798;BME280;76244;53.434;14.484;2024-02-16T12:38:39;101142.50;;;13.66;65.30
85798;BME280;76244;53.434;14.484;2024-02-16T12:41:12;101143.92;;;13.66;65.64
85798;BME280;76244;53.434;14.484;2024-02-16T12:43:44;101141.61;;;13.65;65.95
85798;BME280;76244;53.434;14.484;2024-02-16T12:46:18;101142.16;;;13.65;65.98
85798;BME280;76244;53.434;14.484;2024-02-16T12:48:50;101146.41;;;13.65;65.85
85798;BME280;76244;53.434;14.484;2024-02-16T12:51:25;101142.52;;;13.65;65.55
85798;BME280;76244;53.434;14.484;2024-02-16T12:53:57;101141.80;;;13.64;65.47
85798;BME280;76244;53.434;14.484;2024-02-16T12:56:31;101145.52;;;13.64;65.33
85798;BME280;76244;53.434;14.484;2024-02-16T12:59:03;101142.14;;;13.64;65.71
85798;BME280;76244;53.434;14.484;2024-02-16T13:01:37;101136.31;;;13.64;65.97
85798;BME280;76244;53.434;14.484;2024-02-16T13:04:09;101138.08;;;13.65;65.51
85798;BME280;76244;53.434;14.484;2024-02-16T13:06:42;101141.61;;;13.67;65.51
85798;BME280;76244;53.434;14.484;2024-02-16T13:09:16;101140.52;;;13.70;65.17
85798;BME280;76244;53.434;14.484;2024-02-16T13:11:49;101141.92;;;13.72;65.27